Adamovichi, Belarus

7:23 PM +03 on April 25, 2017 (GMT +0300)
Unnamed Road | | Change Station

Elev 583 ft 54.43 °N, 27.33 °E | Updated 7 minutes ago

Overcast
Overcast
55.2 °F
Feels Like 55.2 °F
N
2.5
Wind Variable Wind from SSE
Gusts 7.5 mph

Today
High -- | Low -- °F
--% Chance of Precip.
Yesterday
High -- | Low -- °F
Precip. -- in
Pressure 29.71 in
Visibility -9999.0 miles
Clouds
Dew Point 41 °F
Humidity 59%
Rainfall Not available.
Snow Depth Not available.
5:47 AM 8:34 PM
Waning Crescent, 1% visible
METAR UMMS 251600Z 17006MPS CAVOK 14/02 Q1006 R13/CLRD// NOSIG
Pressure 29.71 in
Visibility -9999.0 miles
Clouds
Dew Point 41 °F
Humidity 59%
Rainfall Not available.
Snow Depth Not available.
5:47 AM 8:34 PM
Waning Crescent, 1% visible
METAR UMMS 251600Z 17006MPS CAVOK 14/02 Q1006 R13/CLRD// NOSIG

Get Severe Weather Alerts

Thanks for signing up!

Be on the lookout for a verification email in your inbox.

You'll start receiving the daily forecast at 8 AM.

×

10-Day Weather Forecast

×

Almanac

Astronomy

Apr. 25, 2017 Rise Set
Actual Time
Civil Twilight
Nautical Twilight
Astronomical Twilight
Moon
Length of Visible Light
Length of Day
Tomorrow will be .
, % of the Moon is Illuminated

Today's Extremes

Country Highs Country Lows

Community

WunderPhotos

WunderBlog® & News

Nearby

Air Quality

  Air Quality AQ Index Pollutant
Not available.

Snow Depth

Station Depth Elevation

Earthquake Activity

City Distance Mag. Time & Date
Minimum magnitude displayed is 2.5.

Coastal Water Temperatures

Place Temperature

Stations

Nearby Weather Stations

Station Location Temp. Windchill Dew Point Humidity Wind Precip. Elev Updated Type